createdAt,value
2023-04-02T00:01:22.829Z,78.15
2023-04-02T00:04:01.169Z,79.95
2023-04-02T00:06:35.534Z,84.78
2023-04-02T00:09:46.609Z,79.22
2023-04-02T00:12:18.463Z,73.10
2023-04-02T00:14:53.836Z,82.82
2023-04-02T00:17:24.935Z,78.95
2023-04-02T00:20:00.298Z,85.53
2023-04-02T00:22:32.944Z,87.00
2023-04-02T00:25:04.776Z,80.97
2023-04-02T00:27:33.920Z,75.22
2023-04-02T00:30:03.019Z,82.45
2023-04-02T00:32:33.910Z,90.40
2023-04-02T00:35:02.960Z,78.45
2023-04-02T00:37:40.384Z,79.57
2023-04-02T00:40:12.439Z,78.60
2023-04-02T00:42:41.615Z,70.57
2023-04-02T00:45:32.352Z,80.82
2023-04-02T00:48:25.992Z,80.05
2023-04-02T00:50:55.101Z,76.47
2023-04-02T00:53:30.393Z,80.47
2023-04-02T00:56:02.610Z,78.78
2023-04-02T00:58:36.467Z,81.88
2023-04-02T01:01:06.075Z,78.72
2023-04-02T01:03:37.864Z,92.45
2023-04-02T01:06:12.152Z,90.38
2023-04-02T01:08:40.797Z,105.97
2023-04-02T01:11:33.250Z,105.03
2023-04-02T01:14:07.721Z,121.68
2023-04-02T01:16:51.775Z,126.25
2023-04-02T01:19:56.450Z,121.28
2023-04-02T01:22:36.445Z,122.38
2023-04-02T01:25:07.846Z,129.40
2023-04-02T01:28:09.865Z,126.15
2023-04-02T01:30:38.544Z,135.75
2023-04-02T01:33:08.318Z,134.25
2023-04-02T01:35:40.817Z,118.82
2023-04-02T01:38:15.177Z,117.00
2023-04-02T01:40:47.016Z,116.90
2023-04-02T01:43:54.957Z,96.70
2023-04-02T01:46:33.622Z,99.43
2023-04-02T01:49:04.952Z,91.40
2023-04-02T01:51:35.865Z,93.28
2023-04-02T01:54:08.375Z,93.07
2023-04-02T01:56:37.296Z,85.25
2023-04-02T01:59:07.290Z,81.38
2023-04-02T02:01:44.494Z,90.18
2023-04-02T02:04:17.134Z,77.80
2023-04-02T02:06:46.628Z,73.77
2023-04-02T02:09:22.049Z,86.15
2023-04-02T02:11:52.741Z,67.22
2023-04-02T02:14:24.525Z,65.18
2023-04-02T02:16:55.624Z,64.90
2023-04-02T02:19:51.986Z,70.20
2023-04-02T02:22:35.622Z,66.35
2023-04-02T02:25:06.749Z,63.80
2023-04-02T02:28:00.963Z,62.72
2023-04-02T02:30:57.744Z,67.63
2023-04-02T02:33:33.200Z,65.60
2023-04-02T02:36:39.111Z,64.70
2023-04-02T02:39:19.665Z,69.32
2023-04-02T02:42:04.875Z,71.00
2023-04-02T02:44:44.748Z,65.47
2023-04-02T02:47:39.816Z,72.53
2023-04-02T02:50:13.620Z,70.10
2023-04-02T02:52:47.146Z,70.75
2023-04-02T02:57:56.047Z,74.63
2023-04-02T03:00:26.163Z,73.85
2023-04-02T03:02:58.015Z,78.32
2023-04-02T03:05:29.297Z,80.75
2023-04-02T03:07:59.144Z,84.00
2023-04-02T03:10:47.765Z,78.25
2023-04-02T03:13:24.559Z,90.35
2023-04-02T03:16:22.214Z,75.93
2023-04-02T03:19:10.574Z,82.78
2023-04-02T03:21:50.587Z,85.90
2023-04-02T03:24:31.644Z,85.40
2023-04-02T03:27:17.322Z,84.60
2023-04-02T03:30:17.255Z,87.43
2023-04-02T03:32:46.412Z,83.03
2023-04-02T03:35:26.793Z,84.20
2023-04-02T03:38:02.491Z,84.97
2023-04-02T03:40:35.755Z,79.00
2023-04-02T03:43:25.424Z,88.25
2023-04-02T03:46:02.123Z,82.25
2023-04-02T03:48:39.979Z,96.20
2023-04-02T03:51:36.166Z,85.35
2023-04-02T03:54:05.253Z,84.22
2023-04-02T03:56:41.325Z,85.53
2023-04-02T03:59:37.189Z,95.57
2023-04-02T04:02:18.013Z,88.07
2023-04-02T04:04:51.257Z,91.95
2023-04-02T04:07:40.651Z,84.90
2023-04-02T04:10:10.790Z,91.30
2023-04-02T04:12:45.766Z,79.18
2023-04-02T04:15:33.653Z,76.38
2023-04-02T04:18:20.735Z,80.15
2023-04-02T04:20:58.517Z,87.18
2023-04-02T04:23:34.070Z,81.45
2023-04-02T04:26:10.753Z,79.65
2023-04-02T04:29:00.070Z,84.07
2023-04-02T04:31:56.751Z,86.38
2023-04-02T04:34:43.870Z,80.97
2023-04-02T04:37:26.603Z,93.03
2023-04-02T04:40:07.270Z,78.60
2023-04-02T04:42:38.066Z,73.15
2023-04-02T04:45:31.298Z,78.15
2023-04-02T04:48:03.661Z,86.63
2023-04-02T04:50:53.725Z,76.00
2023-04-02T04:53:24.801Z,81.07
2023-04-02T04:56:05.962Z,95.00
2023-04-02T04:59:05.311Z,73.93
2023-04-02T05:01:58.779Z,84.45
2023-04-02T05:04:37.605Z,78.60
2023-04-02T05:07:21.998Z,105.80
2023-04-02T05:10:12.505Z,103.38
2023-04-02T05:12:52.437Z,85.10
2023-04-02T05:15:28.085Z,91.93
2023-04-02T05:18:13.156Z,87.18
2023-04-02T05:20:50.598Z,85.50
2023-04-02T05:23:29.570Z,81.43
2023-04-02T05:26:16.323Z,99.85
2023-04-02T05:29:17.794Z,109.78
2023-04-02T05:31:51.239Z,95.43
2023-04-02T05:34:26.488Z,102.32
2023-04-02T05:36:57.035Z,116.55
2023-04-02T05:39:27.190Z,111.55
2023-04-02T05:42:12.524Z,103.78
2023-04-02T05:44:49.343Z,91.05
2023-04-02T05:47:30.926Z,119.10
2023-04-02T05:50:09.020Z,106.43
2023-04-02T05:52:55.357Z,122.00
2023-04-02T05:55:42.360Z,133.25
2023-04-02T05:58:59.459Z,122.60
2023-04-02T06:01:34.986Z,126.63
2023-04-02T06:04:21.838Z,130.10
2023-04-02T06:07:16.399Z,112.93
2023-04-02T06:09:55.882Z,124.65
2023-04-02T06:12:41.204Z,126.18
2023-04-02T06:15:20.583Z,124.00
2023-04-02T06:17:53.998Z,102.47
2023-04-02T06:20:22.823Z,126.32
2023-04-02T06:23:14.174Z,124.50
2023-04-02T06:25:49.907Z,123.80
2023-04-02T06:28:40.836Z,111.90
2023-04-02T06:31:13.706Z,109.53
2023-04-02T06:33:42.686Z,108.20
2023-04-02T06:36:13.598Z,107.32
2023-04-02T06:38:42.656Z,118.63
2023-04-02T06:41:19.624Z,116.32
2023-04-02T06:43:53.844Z,100.88
2023-04-02T06:46:32.023Z,118.20
2023-04-02T06:49:22.090Z,107.22
2023-04-02T06:51:52.521Z,100.65
2023-04-02T06:54:21.790Z,89.95
2023-04-02T06:56:52.956Z,93.63
2023-04-02T06:59:22.120Z,86.47
2023-04-02T07:01:54.815Z,93.45
2023-04-02T07:04:24.025Z,98.47
2023-04-02T07:06:53.439Z,88.28
2023-04-02T07:09:22.169Z,94.65
2023-04-02T07:11:50.816Z,99.45
2023-04-02T07:14:19.489Z,89.60
2023-04-02T07:16:48.427Z,92.25
2023-04-02T07:19:23.684Z,88.00
2023-04-02T07:21:52.358Z,94.60
2023-04-02T07:24:20.980Z,108.40
2023-04-02T07:26:49.592Z,96.57
2023-04-02T07:29:18.922Z,96.22
2023-04-02T07:31:47.732Z,98.18
2023-04-02T07:34:16.878Z,102.40
2023-04-02T07:36:45.580Z,98.60
2023-04-02T07:39:14.363Z,90.88
2023-04-02T07:41:54.550Z,102.32
2023-04-02T07:44:23.123Z,100.28
2023-04-02T07:46:51.988Z,108.75
2023-04-02T07:49:20.841Z,94.25
2023-04-02T07:51:50.265Z,104.68
2023-04-02T07:54:18.916Z,95.22
2023-04-02T07:56:47.691Z,104.25
2023-04-02T07:59:16.356Z,95.22
2023-04-02T08:01:45.134Z,116.20
2023-04-02T08:04:21.975Z,101.30
2023-04-02T08:06:51.740Z,106.88
2023-04-02T08:09:20.465Z,98.90
2023-04-02T08:11:49.270Z,98.63
2023-04-02T08:14:18.213Z,95.10
2023-04-02T08:16:48.308Z,96.03
2023-04-02T08:19:17.235Z,97.50
2023-04-02T08:21:51.852Z,116.80
2023-04-02T08:24:21.071Z,88.97
2023-04-02T08:26:51.202Z,95.78
2023-04-02T08:29:19.848Z,95.10
2023-04-02T08:31:48.672Z,84.05
2023-04-02T08:34:17.388Z,109.18
2023-04-02T08:36:46.963Z,98.60
2023-04-02T08:39:16.193Z,99.97
2023-04-02T08:42:32.165Z,103.72
2023-04-02T08:45:23.023Z,99.15
2023-04-02T08:47:56.744Z,96.32
2023-04-02T08:50:38.464Z,108.32
2023-04-02T08:53:15.945Z,98.43
2023-04-02T08:55:57.123Z,105.47
2023-04-02T08:58:34.897Z,119.10
2023-04-02T09:01:05.851Z,119.60
2023-04-02T09:03:41.020Z,115.10
2023-04-02T09:06:16.475Z,128.05
2023-04-02T09:08:47.584Z,114.45
2023-04-02T09:11:18.641Z,124.82
2023-04-02T09:13:49.629Z,122.38
2023-04-02T09:16:25.226Z,133.77
2023-04-02T09:18:54.884Z,120.95
2023-04-02T09:21:23.758Z,130.38
2023-04-02T09:23:52.311Z,133.25
2023-04-02T09:26:26.366Z,103.13
2023-04-02T09:29:14.839Z,124.85
2023-04-02T09:31:50.093Z,106.80
2023-04-02T09:34:38.399Z,119.85
2023-04-02T09:37:16.175Z,121.28
2023-04-02T09:39:45.025Z,114.18
2023-04-02T09:42:39.370Z,98.28
2023-04-02T09:45:22.602Z,115.43
2023-04-02T09:47:53.267Z,128.88
2023-04-02T09:50:34.137Z,132.23
2023-04-02T09:53:30.269Z,126.57
2023-04-02T09:56:25.880Z,130.77
2023-04-02T09:59:23.914Z,132.98
2023-04-02T10:01:55.367Z,108.55
2023-04-02T10:04:39.776Z,118.50
2023-04-02T10:07:09.014Z,125.65
2023-04-02T10:09:39.950Z,130.38
2023-04-02T10:12:13.834Z,116.78
2023-04-02T10:14:45.292Z,121.07
2023-04-02T10:17:27.279Z,126.18
2023-04-02T10:20:18.716Z,119.30
2023-04-02T10:22:48.295Z,106.75
2023-04-02T10:25:18.829Z,119.38
2023-04-02T10:28:07.635Z,115.47
2023-04-02T10:30:48.786Z,100.20
2023-04-02T10:33:35.027Z,117.05
2023-04-02T10:36:40.758Z,90.20
2023-04-02T10:39:13.461Z,96.13
2023-04-02T10:41:59.013Z,87.77
2023-04-02T10:44:45.846Z,122.78
2023-04-02T10:47:33.499Z,98.53
2023-04-02T10:50:22.837Z,104.30
2023-04-02T10:53:03.984Z,126.43
2023-04-02T10:55:35.649Z,113.85
2023-04-02T10:58:09.772Z,129.30
2023-04-02T11:00:41.747Z,117.18
2023-04-02T11:03:29.702Z,125.63
2023-04-02T11:06:00.980Z,117.68
2023-04-02T11:08:44.305Z,136.45
2023-04-02T11:11:17.410Z,106.13
2023-04-02T11:14:23.208Z,124.78
2023-04-02T11:16:53.960Z,121.90
2023-04-02T11:19:24.668Z,123.68
2023-04-02T11:22:07.972Z,132.40
2023-04-02T11:24:52.259Z,124.88
2023-04-02T11:27:27.745Z,111.35
2023-04-02T11:30:19.732Z,112.82
2023-04-02T11:32:50.835Z,107.93
2023-04-02T11:35:39.103Z,118.82
2023-04-02T11:38:14.247Z,111.22
2023-04-02T11:40:43.083Z,108.15
2023-04-02T11:43:39.077Z,94.10
2023-04-02T11:46:32.466Z,112.70
2023-04-02T11:49:39.048Z,106.85
2023-04-02T11:52:22.442Z,115.85
2023-04-02T11:55:04.788Z,90.07
2023-04-02T11:57:53.260Z,98.05
2023-04-02T12:00:52.917Z,99.00
2023-04-02T12:03:33.934Z,92.20
2023-04-02T12:06:27.027Z,83.65
2023-04-02T12:09:30.184Z,82.88
2023-04-02T12:12:17.798Z,79.93
2023-04-02T12:14:51.860Z,80.07
2023-04-02T12:17:32.158Z,89.15
2023-04-02T12:20:25.985Z,80.70
2023-04-02T12:22:56.938Z,97.43
2023-04-02T12:25:34.497Z,84.32
2023-04-02T12:28:08.981Z,79.35
2023-04-02T12:30:38.663Z,76.47
2023-04-02T12:33:28.738Z,79.60
2023-04-02T12:36:03.089Z,91.35
2023-04-02T12:38:59.080Z,85.57
2023-04-02T12:41:31.420Z,105.75
2023-04-02T12:44:04.815Z,99.32
2023-04-02T12:46:37.199Z,100.18
2023-04-02T12:49:14.930Z,100.25
2023-04-02T12:51:43.860Z,108.28
2023-04-02T12:54:18.783Z,79.63
2023-04-02T12:56:47.758Z,120.07
2023-04-02T12:59:38.153Z,119.82
2023-04-02T13:02:20.653Z,104.45
2023-04-02T13:05:04.942Z,110.15
2023-04-02T13:07:35.082Z,99.30
2023-04-02T13:10:07.035Z,108.85
2023-04-02T13:12:45.674Z,107.63
2023-04-02T13:15:28.245Z,116.05
2023-04-02T13:18:07.865Z,96.00
2023-04-02T13:20:41.724Z,90.57
2023-04-02T13:23:30.393Z,103.95
2023-04-02T13:26:08.154Z,83.50
2023-04-02T13:28:36.804Z,94.57
2023-04-02T13:31:05.423Z,102.22
2023-04-02T13:33:34.087Z,93.47
2023-04-02T13:36:02.769Z,93.43
2023-04-02T13:38:31.487Z,82.75
2023-04-02T13:41:00.154Z,79.28
2023-04-02T13:43:28.777Z,85.20
2023-04-02T13:45:58.208Z,88.57
2023-04-02T13:48:30.106Z,84.72
2023-04-02T13:50:58.756Z,83.88
2023-04-02T13:53:32.505Z,90.07
2023-04-02T13:56:01.088Z,85.03
2023-04-02T13:58:29.720Z,76.40
2023-04-02T14:00:58.412Z,76.22
2023-04-02T14:03:27.191Z,75.03
2023-04-02T14:06:13.470Z,88.90
2023-04-02T14:09:07.963Z,83.22
2023-04-02T14:11:43.899Z,70.40
2023-04-02T14:14:33.694Z,62.38
2023-04-02T14:17:11.704Z,65.20
2023-04-02T14:20:03.463Z,52.40
2023-04-02T14:23:05.948Z,50.17
2023-04-02T14:25:45.786Z,40.45
2023-04-02T14:28:31.305Z,38.78
2023-04-02T14:31:15.599Z,33.55
2023-04-02T14:33:59.210Z,39.53
2023-04-02T14:36:33.718Z,31.73
2023-04-02T14:39:34.052Z,31.85
2023-04-02T14:42:15.190Z,28.90
2023-04-02T14:44:51.420Z,24.35
2023-04-02T14:47:20.089Z,30.67
2023-04-02T14:49:51.133Z,27.08
2023-04-02T14:52:23.289Z,28.05
2023-04-02T14:55:11.752Z,27.13
2023-04-02T14:57:50.207Z,27.67
2023-04-02T15:00:20.611Z,20.20
2023-04-02T15:03:04.746Z,26.05
2023-04-02T15:05:49.932Z,22.98
2023-04-02T15:08:31.814Z,19.05
2023-04-02T15:11:08.081Z,21.15
2023-04-02T15:13:47.487Z,19.63
2023-04-02T15:16:23.727Z,22.85
2023-04-02T15:18:58.136Z,18.20
2023-04-02T15:24:48.417Z,18.85
2023-04-02T15:27:53.389Z,15.70
2023-04-02T15:30:32.355Z,14.88
2023-04-02T15:33:29.887Z,16.92
2023-04-02T15:36:17.271Z,11.68
2023-04-02T15:38:49.729Z,10.82
2023-04-02T15:41:27.759Z,11.10
2023-04-02T15:44:16.234Z,10.02
2023-04-02T15:46:57.421Z,16.42
2023-04-02T15:49:51.441Z,13.05
2023-04-02T15:53:02.445Z,12.82
2023-04-02T15:55:40.957Z,9.68
2023-04-02T15:58:15.457Z,7.10
2023-04-02T16:01:05.796Z,8.82
2023-04-02T16:03:58.689Z,6.65
2023-04-02T16:06:58.695Z,6.45
2023-04-02T16:09:32.091Z,6.80
2023-04-02T16:12:11.530Z,7.28
2023-04-02T16:14:40.870Z,7.25
2023-04-02T16:17:24.773Z,11.07
2023-04-02T16:20:21.356Z,7.40
2023-04-02T16:23:00.819Z,8.85
2023-04-02T16:25:49.657Z,9.15
2023-04-02T16:28:42.046Z,12.05
2023-04-02T16:31:13.362Z,6.80
2023-04-02T16:34:03.878Z,11.38
2023-04-02T16:36:44.345Z,5.25
2023-04-02T16:39:37.056Z,12.30
2023-04-02T16:42:21.114Z,6.10
2023-04-02T16:45:16.425Z,4.70
2023-04-02T16:47:48.718Z,3.85
2023-04-02T16:50:39.884Z,4.45
2023-04-02T16:53:33.163Z,2.97
2023-04-02T16:56:08.687Z,3.67
2023-04-02T16:58:56.570Z,3.45
2023-04-02T17:01:56.510Z,3.65
2023-04-02T17:04:37.022Z,2.47
2023-04-02T17:07:42.532Z,3.25
2023-04-02T17:10:32.954Z,2.50
2023-04-02T17:13:10.409Z,9.60
2023-04-02T17:15:43.278Z,6.07
2023-04-02T17:18:18.661Z,6.25
2023-04-02T17:20:49.336Z,5.30
2023-04-02T17:23:19.581Z,3.10
2023-04-02T17:26:09.021Z,4.15
2023-04-02T17:28:38.202Z,3.13
2023-04-02T17:31:23.537Z,4.50
2023-04-02T17:33:52.199Z,7.00
2023-04-02T17:36:27.419Z,5.38
2023-04-02T17:39:30.971Z,5.35
2023-04-02T17:42:36.614Z,5.45
2023-04-02T17:45:13.993Z,9.02
2023-04-02T17:47:56.606Z,5.35
2023-04-02T17:50:38.979Z,4.95
2023-04-02T17:53:24.319Z,5.47
2023-04-02T17:56:08.253Z,13.38
2023-04-02T17:58:55.696Z,8.73
2023-04-02T18:01:37.258Z,6.82
2023-04-02T18:04:40.246Z,4.65
2023-04-02T18:07:17.740Z,9.13
2023-04-02T18:09:52.363Z,10.70
2023-04-02T18:12:40.711Z,5.75
2023-04-02T18:15:39.917Z,7.40
2023-04-02T18:18:36.096Z,9.38
2023-04-02T18:21:23.450Z,6.90
2023-04-02T18:24:15.679Z,10.60
2023-04-02T18:27:04.948Z,6.45
2023-04-02T18:29:49.402Z,9.65
2023-04-02T18:32:30.590Z,10.05
2023-04-02T18:35:26.963Z,8.65
2023-04-02T18:37:58.471Z,13.32
2023-04-02T18:40:59.607Z,10.30
2023-04-02T18:43:54.858Z,15.13
2023-04-02T18:46:56.985Z,16.60
2023-04-02T18:49:30.816Z,12.35
2023-04-02T18:52:05.189Z,15.25
2023-04-02T18:54:40.294Z,16.23
2023-04-02T18:57:31.949Z,15.07
2023-04-02T19:00:07.524Z,15.05
2023-04-02T19:02:50.647Z,19.20
2023-04-02T19:05:29.589Z,15.88
2023-04-02T19:08:23.195Z,15.85
2023-04-02T19:11:15.437Z,18.73
2023-04-02T19:13:46.343Z,16.58
2023-04-02T19:16:29.946Z,16.77
2023-04-02T19:19:20.741Z,20.58
2023-04-02T19:22:03.960Z,14.98
2023-04-02T19:24:59.521Z,18.98
2023-04-02T19:27:52.726Z,16.02
2023-04-02T19:30:36.158Z,18.15
2023-04-02T19:33:35.663Z,13.80
2023-04-02T19:36:20.933Z,14.50
2023-04-02T19:38:55.019Z,16.85
2023-04-02T19:41:32.075Z,15.98
2023-04-02T19:44:00.847Z,14.48
2023-04-02T19:46:30.079Z,17.15
2023-04-02T19:49:24.071Z,16.20
2023-04-02T19:51:53.178Z,14.93
2023-04-02T19:54:21.792Z,9.68
2023-04-02T19:56:50.689Z,10.70
2023-04-02T19:59:19.737Z,13.07
2023-04-02T20:01:48.884Z,9.82
2023-04-02T20:04:17.594Z,13.40
2023-04-02T20:06:46.269Z,9.93
2023-04-02T20:09:14.849Z,8.63
2023-04-02T20:11:46.118Z,8.15
2023-04-02T20:14:14.722Z,11.40
2023-04-02T20:16:44.623Z,10.48
2023-04-02T20:19:14.381Z,11.07
2023-04-02T20:21:42.936Z,10.32
2023-04-02T20:24:11.617Z,9.38
2023-04-02T20:26:40.302Z,9.35
2023-04-02T20:29:08.908Z,9.15
2023-04-02T20:31:37.731Z,9.15
2023-04-02T20:34:07.949Z,8.80
2023-04-02T20:36:36.662Z,8.65
2023-04-02T20:39:08.594Z,8.63
2023-04-02T20:41:37.188Z,9.70
2023-04-02T20:44:05.829Z,7.38
2023-04-02T20:46:34.948Z,8.90
2023-04-02T20:49:03.819Z,8.18
2023-04-02T20:51:32.732Z,9.93
2023-04-02T20:54:01.637Z,8.50
2023-04-02T20:56:30.115Z,16.63
2023-04-02T20:58:58.751Z,12.55
2023-04-02T21:01:28.663Z,14.45
2023-04-02T21:03:58.716Z,10.73
2023-04-02T21:06:29.487Z,11.65
2023-04-02T21:08:58.089Z,10.43
2023-04-02T21:11:28.135Z,9.05
2023-04-02T21:13:56.961Z,13.52
2023-04-02T21:16:29.917Z,10.70
2023-04-02T21:19:00.150Z,12.55
2023-04-02T21:21:28.961Z,10.60
2023-04-02T21:24:02.700Z,10.35
2023-04-02T21:26:34.615Z,13.07
2023-04-02T21:29:04.099Z,13.25
2023-04-02T21:31:38.686Z,17.10
2023-04-02T21:34:08.257Z,14.32
2023-04-02T21:36:39.174Z,13.02
2023-04-02T21:39:10.582Z,13.45
2023-04-02T21:41:44.405Z,15.48
2023-04-02T21:44:16.018Z,14.98
2023-04-02T21:46:48.299Z,13.98
2023-04-02T21:49:20.437Z,12.93
2023-04-02T21:51:50.364Z,13.20
2023-04-02T21:54:19.065Z,15.27
2023-04-02T21:56:48.341Z,15.35
2023-04-02T21:59:18.439Z,16.25
2023-04-02T22:01:52.582Z,17.17
2023-04-02T22:04:26.605Z,20.98
2023-04-02T22:06:55.541Z,28.70
2023-04-02T22:09:26.455Z,32.88
2023-04-02T22:12:00.216Z,17.48
2023-04-02T22:14:32.005Z,20.17
2023-04-02T22:17:00.306Z,20.02
2023-04-02T22:19:29.258Z,20.63
2023-04-02T22:21:58.220Z,18.30
2023-04-02T22:24:27.003Z,22.83
2023-04-02T22:26:55.872Z,5.68
2023-04-02T22:29:24.500Z,1.90
2023-04-02T22:31:53.144Z,1.63
2023-04-02T22:34:22.307Z,2.53
2023-04-02T22:36:50.925Z,3.30
2023-04-02T22:39:19.648Z,2.60
2023-04-02T22:41:48.215Z,1.88
2023-04-02T22:44:17.499Z,1.30
2023-04-02T22:46:46.101Z,1.05
2023-04-02T22:49:20.320Z,3.95
2023-04-02T22:51:48.961Z,2.15
2023-04-02T22:54:17.720Z,1.88
2023-04-02T22:56:46.469Z,1.08
2023-04-02T22:59:15.096Z,1.42
2023-04-02T23:01:43.811Z,1.10
2023-04-02T23:04:12.615Z,1.98
2023-04-02T23:06:41.250Z,1.45
2023-04-02T23:09:10.105Z,1.48
2023-04-02T23:11:39.009Z,1.17
2023-04-02T23:14:08.274Z,1.60
2023-04-02T23:16:36.915Z,1.92
2023-04-02T23:19:05.604Z,1.73
2023-04-02T23:21:34.170Z,1.50
2023-04-02T23:24:02.804Z,1.35
2023-04-02T23:26:32.806Z,2.58
2023-04-02T23:29:01.975Z,1.60
2023-04-02T23:31:30.814Z,1.10
2023-04-02T23:33:59.867Z,1.75
2023-04-02T23:36:34.164Z,0.80
2023-04-02T23:39:06.270Z,0.85
2023-04-02T23:41:35.011Z,2.15
2023-04-02T23:44:03.938Z,2.50
2023-04-02T23:46:33.138Z,19.40
2023-04-02T23:49:02.502Z,6.82
2023-04-02T23:51:35.329Z,2.13
2023-04-02T23:54:03.999Z,3.05
2023-04-02T23:56:33.032Z,1.63
2023-04-02T23:59:01.853Z,3.40
